Portada
METAR-TAF:

METAR-TAF

Aeroports :

Kiritimati, Kiribati

latitud: 01-59N, longitud: 157-29W, altitud: 3 m

Observació

L'informe es va fer fa 38 minuts, a les 23:00 UTC
Vent 5 kt del Est
Temperatura 29°C
Humitat 66%
Pressió 1011 hPa
Visibilitat 10 km o més
Núvols disperses a una alçada de 1900 ft

METAR: PLCH 272300Z 09005KT 9999 SCT019 29/22 Q1011

Hora: 13:38 (23:38 UTC)

Pronòstic

L'informe es va fer fa 6 hores i 19 minuts, a les 17:19 UTC
Pronòstic vàlid del 27 a les 18 UTC al 28 a les 18 UTC
Vent 8 kt del Est/Sud-Est
Visibilitat 10 km o més
Núvols disperses a una alçada de 2000 ft

TAF: PLCH 271719Z 2718/2818 11008KT 9999 SCT020

Observacions i pronòstics meteorològics de més de 4000 aeroports (METAR i TAF).

Les estacions disponibles són els punts grocs i vermells al mapa.

Posi el ratolí al punt desitjat per veure el nom de l'estació.

Feu clic per veure les observacions i els pronòstics meteorològics.

Per canviar el mapa: feu clic els botons verds amb una creu de color negre per apropar; al botó verd amb un guió per allunyar la imatge; o en les fletxes verdes per a mapes adjacents.


METAR-TAF: